sensor_id;sensor_type;location;lat;lon;timestamp;pressure;altitude;pressure_sealevel;temperature;humidity
60258;BME280;46115;44.484;11.314;2023-03-03T00:03:08;100475.03;;;6.99;95.47
60258;BME280;46115;44.484;11.314;2023-03-03T00:07:11;100469.50;;;7.06;95.76
60258;BME280;46115;44.484;11.314;2023-03-03T00:11:17;100471.22;;;7.07;95.18
60258;BME280;46115;44.484;11.314;2023-03-03T00:15:21;100476.34;;;7.10;95.52
60258;BME280;46115;44.484;11.314;2023-03-03T00:19:24;100478.94;;;7.12;94.93
60258;BME280;46115;44.484;11.314;2023-03-03T00:23:34;100475.28;;;7.16;94.65
60258;BME280;46115;44.484;11.314;2023-03-03T00:27:38;100433.22;;;6.91;94.73
60258;BME280;46115;44.484;11.314;2023-03-03T00:31:40;100466.16;;;7.01;94.46
60258;BME280;46115;44.484;11.314;2023-03-03T00:35:42;100471.97;;;7.11;94.23
60258;BME280;46115;44.484;11.314;2023-03-03T00:39:45;100464.94;;;7.11;94.19
60258;BME280;46115;44.484;11.314;2023-03-03T00:43:49;100458.59;;;7.17;94.45
60258;BME280;46115;44.484;11.314;2023-03-03T00:47:52;100453.50;;;7.12;94.62
60258;BME280;46115;44.484;11.314;2023-03-03T00:51:54;100459.34;;;7.20;93.86
60258;BME280;46115;44.484;11.314;2023-03-03T00:55:57;100454.94;;;7.21;94.70
60258;BME280;46115;44.484;11.314;2023-03-03T01:00:01;100414.81;;;6.91;94.82
60258;BME280;46115;44.484;11.314;2023-03-03T01:04:05;100445.72;;;7.09;94.33
60258;BME280;46115;44.484;11.314;2023-03-03T01:08:08;100442.03;;;7.15;93.89
60258;BME280;46115;44.484;11.314;2023-03-03T01:12:11;100443.78;;;7.14;93.88
60258;BME280;46115;44.484;11.314;2023-03-03T01:16:15;100441.38;;;7.08;94.67
60258;BME280;46115;44.484;11.314;2023-03-03T01:20:18;100437.91;;;7.08;94.45
60258;BME280;46115;44.484;11.314;2023-03-03T01:24:21;100417.44;;;6.91;94.70
60258;BME280;46115;44.484;11.314;2023-03-03T01:28:23;100431.28;;;7.21;94.11
60258;BME280;46115;44.484;11.314;2023-03-03T01:32:27;100421.97;;;7.12;94.07
60258;BME280;46115;44.484;11.314;2023-03-03T01:36:30;100423.16;;;7.29;93.51
60258;BME280;46115;44.484;11.314;2023-03-03T01:40:32;100427.91;;;7.17;93.80
60258;BME280;46115;44.484;11.314;2023-03-03T01:44:37;100414.75;;;7.17;93.87
60258;BME280;46115;44.484;11.314;2023-03-03T01:48:41;100418.31;;;7.16;94.58
60258;BME280;46115;44.484;11.314;2023-03-03T01:52:45;100414.72;;;7.19;94.43
60258;BME280;46115;44.484;11.314;2023-03-03T01:56:51;100409.56;;;7.16;94.11
60258;BME280;46115;44.484;11.314;2023-03-03T02:00:58;100399.16;;;7.13;94.35
60258;BME280;46115;44.484;11.314;2023-03-03T02:05:03;100370.75;;;6.99;94.50
60258;BME280;46115;44.484;11.314;2023-03-03T02:09:10;100397.09;;;7.21;93.36
60258;BME280;46115;44.484;11.314;2023-03-03T02:13:13;100389.91;;;7.26;94.10
60258;BME280;46115;44.484;11.314;2023-03-03T02:17:16;100387.19;;;7.29;93.40
60258;BME280;46115;44.484;11.314;2023-03-03T02:21:21;100382.19;;;7.22;93.30
60258;BME280;46115;44.484;11.314;2023-03-03T02:25:28;100387.50;;;7.20;93.93
60258;BME280;46115;44.484;11.314;2023-03-03T02:29:33;100379.00;;;7.13;93.36
60258;BME280;46115;44.484;11.314;2023-03-03T02:33:37;100314.34;;;6.84;93.48
60258;BME280;46115;44.484;11.314;2023-03-03T02:37:40;100380.47;;;7.20;93.93
60258;BME280;46115;44.484;11.314;2023-03-03T02:41:45;100338.94;;;7.07;94.06
60258;BME280;46115;44.484;11.314;2023-03-03T02:45:52;100366.25;;;7.26;93.32
60258;BME280;46115;44.484;11.314;2023-03-03T02:49:55;100366.53;;;7.18;92.81
60258;BME280;46115;44.484;11.314;2023-03-03T02:53:57;100371.72;;;7.20;92.48
60258;BME280;46115;44.484;11.314;2023-03-03T02:58:02;100367.78;;;7.08;92.95
60258;BME280;46115;44.484;11.314;2023-03-03T03:02:05;100373.56;;;7.18;92.71
60258;BME280;46115;44.484;11.314;2023-03-03T03:06:09;100367.56;;;7.14;92.52
60258;BME280;46115;44.484;11.314;2023-03-03T03:10:12;100370.88;;;7.19;92.08
60258;BME280;46115;44.484;11.314;2023-03-03T03:14:15;100370.13;;;7.16;92.73
60258;BME280;46115;44.484;11.314;2023-03-03T03:18:20;100359.78;;;7.11;92.63
60258;BME280;46115;44.484;11.314;2023-03-03T03:22:23;100355.28;;;6.90;92.96
60258;BME280;46115;44.484;11.314;2023-03-03T03:26:26;100352.19;;;6.79;93.59
60258;BME280;46115;44.484;11.314;2023-03-03T03:30:30;100354.06;;;6.75;94.40
60258;BME280;46115;44.484;11.314;2023-03-03T03:34:34;100327.84;;;6.49;94.25
60258;BME280;46115;44.484;11.314;2023-03-03T03:38:38;100353.44;;;6.69;94.52
60258;BME280;46115;44.484;11.314;2023-03-03T03:42:42;100365.59;;;6.71;94.61
60258;BME280;46115;44.484;11.314;2023-03-03T03:46:45;100361.09;;;6.75;94.37
60258;BME280;46115;44.484;11.314;2023-03-03T03:50:49;100362.97;;;6.71;95.39
60258;BME280;46115;44.484;11.314;2023-03-03T03:54:53;100347.28;;;6.70;94.62
60258;BME280;46115;44.484;11.314;2023-03-03T03:58:55;100355.25;;;6.67;94.71
60258;BME280;46115;44.484;11.314;2023-03-03T04:02:58;100342.81;;;6.72;94.49
60258;BME280;46115;44.484;11.314;2023-03-03T04:07:02;100351.50;;;6.74;94.63
60258;BME280;46115;44.484;11.314;2023-03-03T04:11:05;100348.88;;;6.74;94.85
60258;BME280;46115;44.484;11.314;2023-03-03T04:15:10;100346.03;;;6.80;93.83
60258;BME280;46115;44.484;11.314;2023-03-03T04:19:13;100335.28;;;6.63;94.86
60258;BME280;46115;44.484;11.314;2023-03-03T04:23:18;100340.25;;;6.70;94.27
60258;BME280;46115;44.484;11.314;2023-03-03T04:27:21;100329.09;;;6.64;95.02
60258;BME280;46115;44.484;11.314;2023-03-03T04:31:24;100340.25;;;6.70;94.44
60258;BME280;46115;44.484;11.314;2023-03-03T04:35:28;100339.59;;;6.64;94.54
60258;BME280;46115;44.484;11.314;2023-03-03T04:39:33;100327.78;;;6.50;93.89
60258;BME280;46115;44.484;11.314;2023-03-03T04:43:35;100337.97;;;6.35;94.61
60258;BME280;46115;44.484;11.314;2023-03-03T04:47:39;100334.59;;;6.31;95.56
60258;BME280;46115;44.484;11.314;2023-03-03T04:51:42;100344.53;;;6.21;95.51
60258;BME280;46115;44.484;11.314;2023-03-03T04:55:49;100350.22;;;6.08;95.81
60258;BME280;46115;44.484;11.314;2023-03-03T04:59:51;100346.19;;;5.98;96.18
60258;BME280;46115;44.484;11.314;2023-03-03T05:03:54;100347.75;;;6.03;95.59
60258;BME280;46115;44.484;11.314;2023-03-03T05:07:56;100341.81;;;5.98;96.30
60258;BME280;46115;44.484;11.314;2023-03-03T05:12:00;100342.81;;;5.94;96.63
60258;BME280;46115;44.484;11.314;2023-03-03T05:16:03;100337.22;;;6.05;95.85
60258;BME280;46115;44.484;11.314;2023-03-03T05:20:07;100338.13;;;6.04;96.24
60258;BME280;46115;44.484;11.314;2023-03-03T05:24:11;100329.25;;;6.08;95.93
60258;BME280;46115;44.484;11.314;2023-03-03T05:28:16;100329.94;;;6.13;95.62
60258;BME280;46115;44.484;11.314;2023-03-03T05:32:19;100326.56;;;6.09;95.59
60258;BME280;46115;44.484;11.314;2023-03-03T05:36:21;100327.25;;;6.14;95.63
60258;BME280;46115;44.484;11.314;2023-03-03T05:40:24;100327.78;;;6.25;95.16
60258;BME280;46115;44.484;11.314;2023-03-03T05:44:28;100327.06;;;6.20;94.84
60258;BME280;46115;44.484;11.314;2023-03-03T05:48:30;100328.28;;;6.10;95.35
60258;BME280;46115;44.484;11.314;2023-03-03T05:52:32;100316.69;;;5.91;94.93
60258;BME280;46115;44.484;11.314;2023-03-03T05:56:35;100322.81;;;5.88;96.11
60258;BME280;46115;44.484;11.314;2023-03-03T06:00:38;100317.50;;;5.93;96.04
60258;BME280;46115;44.484;11.314;2023-03-03T06:04:40;100321.09;;;5.87;96.17
60258;BME280;46115;44.484;11.314;2023-03-03T06:08:43;100320.31;;;5.85;96.92
60258;BME280;46115;44.484;11.314;2023-03-03T06:12:45;100324.88;;;5.79;96.22
60258;BME280;46115;44.484;11.314;2023-03-03T06:16:48;100331.34;;;5.69;97.92
60258;BME280;46115;44.484;11.314;2023-03-03T06:20:51;100338.16;;;5.74;96.97
60258;BME280;46115;44.484;11.314;2023-03-03T06:24:54;100341.72;;;5.72;97.14
60258;BME280;46115;44.484;11.314;2023-03-03T06:28:56;100346.72;;;5.79;96.81
60258;BME280;46115;44.484;11.314;2023-03-03T06:33:00;100348.34;;;5.83;97.29
60258;BME280;46115;44.484;11.314;2023-03-03T06:37:02;100350.97;;;5.83;96.84
60258;BME280;46115;44.484;11.314;2023-03-03T06:41:04;100353.66;;;5.82;97.57
60258;BME280;46115;44.484;11.314;2023-03-03T06:45:09;100354.88;;;6.00;97.08
60258;BME280;46115;44.484;11.314;2023-03-03T06:49:13;100351.84;;;6.12;96.48
60258;BME280;46115;44.484;11.314;2023-03-03T06:53:17;100362.03;;;6.21;95.89
60258;BME280;46115;44.484;11.314;2023-03-03T06:57:25;100365.69;;;6.17;96.21
60258;BME280;46115;44.484;11.314;2023-03-03T07:01:32;100360.16;;;6.26;95.72
60258;BME280;46115;44.484;11.314;2023-03-03T07:05:37;100373.50;;;6.45;95.53
60258;BME280;46115;44.484;11.314;2023-03-03T07:09:39;100371.78;;;6.44;95.42
60258;BME280;46115;44.484;11.314;2023-03-03T07:13:42;100377.84;;;6.46;95.61
60258;BME280;46115;44.484;11.314;2023-03-03T07:17:47;100388.13;;;6.52;95.54
60258;BME280;46115;44.484;11.314;2023-03-03T07:21:51;100385.22;;;6.61;95.05
60258;BME280;46115;44.484;11.314;2023-03-03T07:25:54;100352.56;;;6.43;95.31
60258;BME280;46115;44.484;11.314;2023-03-03T07:29:59;100397.56;;;6.84;95.07
60258;BME280;46115;44.484;11.314;2023-03-03T07:34:19;100392.81;;;6.94;94.46
60258;BME280;46115;44.484;11.314;2023-03-03T07:38:29;100391.28;;;7.13;93.76
60258;BME280;46115;44.484;11.314;2023-03-03T07:42:37;100393.34;;;7.28;92.94
60258;BME280;46115;44.484;11.314;2023-03-03T07:46:55;100412.13;;;7.66;92.02
60258;BME280;46115;44.484;11.314;2023-03-03T07:51:02;100401.44;;;7.92;91.28
60258;BME280;46115;44.484;11.314;2023-03-03T07:55:22;100411.31;;;8.09;90.99
60258;BME280;46115;44.484;11.314;2023-03-03T07:59:24;100419.03;;;8.13;90.89
60258;BME280;46115;44.484;11.314;2023-03-03T08:03:27;100416.00;;;8.46;89.85
60258;BME280;46115;44.484;11.314;2023-03-03T08:07:29;100418.91;;;8.60;88.66
60258;BME280;46115;44.484;11.314;2023-03-03T08:11:33;100429.31;;;8.63;87.15
60258;BME280;46115;44.484;11.314;2023-03-03T08:15:36;100438.38;;;8.78;86.77
60258;BME280;46115;44.484;11.314;2023-03-03T08:19:38;100440.03;;;9.60;84.15
60258;BME280;46115;44.484;11.314;2023-03-03T08:23:41;100441.13;;;9.36;83.69
60258;BME280;46115;44.484;11.314;2023-03-03T08:27:46;100441.53;;;9.66;81.95
60258;BME280;46115;44.484;11.314;2023-03-03T08:31:48;100443.72;;;9.37;81.78
60258;BME280;46115;44.484;11.314;2023-03-03T08:35:50;100440.94;;;9.41;81.08
60258;BME280;46115;44.484;11.314;2023-03-03T08:39:53;100445.66;;;9.32;80.95
60258;BME280;46115;44.484;11.314;2023-03-03T08:43:56;100452.00;;;9.49;80.12
60258;BME280;46115;44.484;11.314;2023-03-03T08:47:59;100443.09;;;9.51;79.33
60258;BME280;46115;44.484;11.314;2023-03-03T08:52:01;100441.28;;;9.72;79.58
60258;BME280;46115;44.484;11.314;2023-03-03T08:56:03;100460.25;;;9.99;78.21
60258;BME280;46115;44.484;11.314;2023-03-03T09:00:09;100460.06;;;10.22;78.41
60258;BME280;46115;44.484;11.314;2023-03-03T09:04:12;100465.97;;;10.63;77.00
60258;BME280;46115;44.484;11.314;2023-03-03T09:08:14;100469.09;;;10.54;76.91
60258;BME280;46115;44.484;11.314;2023-03-03T09:12:17;100426.06;;;10.15;76.56
60258;BME280;46115;44.484;11.314;2023-03-03T09:16:21;100465.03;;;10.65;77.47
60258;BME280;46115;44.484;11.314;2023-03-03T09:20:30;100436.47;;;10.37;75.90
60258;BME280;46115;44.484;11.314;2023-03-03T09:24:35;100459.03;;;11.14;73.36
60258;BME280;46115;44.484;11.314;2023-03-03T09:28:38;100471.56;;;11.61;72.64
60258;BME280;46115;44.484;11.314;2023-03-03T09:32:41;100474.59;;;12.20;70.99
60258;BME280;46115;44.484;11.314;2023-03-03T09:36:44;100470.22;;;12.80;68.82
60258;BME280;46115;44.484;11.314;2023-03-03T09:40:55;100476.47;;;12.79;67.77
60258;BME280;46115;44.484;11.314;2023-03-03T09:45:22;100479.75;;;12.68;67.44
60258;BME280;46115;44.484;11.314;2023-03-03T09:49:31;100481.38;;;12.87;65.73
60258;BME280;46115;44.484;11.314;2023-03-03T09:53:44;100458.50;;;13.14;65.57
60258;BME280;46115;44.484;11.314;2023-03-03T09:58:08;100481.72;;;14.94;60.71
60258;BME280;46115;44.484;11.314;2023-03-03T10:02:26;100458.13;;;14.48;61.28
60258;BME280;46115;44.484;11.314;2023-03-03T10:06:37;100461.50;;;14.64;60.70
60258;BME280;46115;44.484;11.314;2023-03-03T10:10:52;100468.56;;;14.37;61.12
60258;BME280;46115;44.484;11.314;2023-03-03T10:15:17;100467.06;;;14.19;60.60
60258;BME280;46115;44.484;11.314;2023-03-03T10:19:34;100468.88;;;14.32;60.34
60258;BME280;46115;44.484;11.314;2023-03-03T10:23:52;100466.88;;;14.36;60.68
60258;BME280;46115;44.484;11.314;2023-03-03T10:28:15;100466.09;;;13.79;61.75
60258;BME280;46115;44.484;11.314;2023-03-03T10:32:43;100471.50;;;13.77;62.66
60258;BME280;46115;44.484;11.314;2023-03-03T10:36:54;100470.78;;;14.30;61.05
60258;BME280;46115;44.484;11.314;2023-03-03T10:41:16;100464.09;;;13.68;63.57
60258;BME280;46115;44.484;11.314;2023-03-03T10:45:44;100469.97;;;14.01;61.91
60258;BME280;46115;44.484;11.314;2023-03-03T10:50:02;100456.47;;;13.33;62.64
60258;BME280;46115;44.484;11.314;2023-03-03T10:54:19;100469.66;;;13.21;63.24
60258;BME280;46115;44.484;11.314;2023-03-03T10:58:40;100471.03;;;13.56;61.04
60258;BME280;46115;44.484;11.314;2023-03-03T11:02:59;100469.41;;;13.82;59.43
60258;BME280;46115;44.484;11.314;2023-03-03T11:07:12;100464.84;;;13.11;61.04
60258;BME280;46115;44.484;11.314;2023-03-03T11:11:27;100462.00;;;13.73;59.77
60258;BME280;46115;44.484;11.314;2023-03-03T11:15:36;100454.41;;;13.81;58.52
60258;BME280;46115;44.484;11.314;2023-03-03T11:19:58;100454.75;;;14.18;60.34
60258;BME280;46115;44.484;11.314;2023-03-03T11:24:25;100447.94;;;13.85;61.65
60258;BME280;46115;44.484;11.314;2023-03-03T11:28:43;100437.03;;;13.19;62.92
60258;BME280;46115;44.484;11.314;2023-03-03T11:32:53;100429.38;;;13.12;61.39
60258;BME280;46115;44.484;11.314;2023-03-03T11:37:03;100430.78;;;12.90;62.35
60258;BME280;46115;44.484;11.314;2023-03-03T11:41:14;100431.44;;;12.63;63.11
60258;BME280;46115;44.484;11.314;2023-03-03T11:45:23;100428.16;;;13.04;63.25
60258;BME280;46115;44.484;11.314;2023-03-03T11:49:35;100423.78;;;13.03;64.16
60258;BME280;46115;44.484;11.314;2023-03-03T11:53:49;100418.78;;;12.82;65.35
60258;BME280;46115;44.484;11.314;2023-03-03T11:58:00;100416.66;;;13.33;62.57
60258;BME280;46115;44.484;11.314;2023-03-03T12:02:34;100417.16;;;13.10;61.18
60258;BME280;46115;44.484;11.314;2023-03-03T12:06:57;100417.06;;;13.11;60.38
60258;BME280;46115;44.484;11.314;2023-03-03T12:11:07;100410.69;;;12.86;60.35
60258;BME280;46115;44.484;11.314;2023-03-03T12:15:20;100419.53;;;13.15;60.75
60258;BME280;46115;44.484;11.314;2023-03-03T12:19:34;100411.06;;;13.24;59.51
60258;BME280;46115;44.484;11.314;2023-03-03T12:23:49;100405.22;;;13.03;61.86
60258;BME280;46115;44.484;11.314;2023-03-03T12:27:58;100392.41;;;12.95;61.18
60258;BME280;46115;44.484;11.314;2023-03-03T12:32:09;100380.94;;;13.09;61.63
60258;BME280;46115;44.484;11.314;2023-03-03T12:36:24;100389.00;;;13.07;59.60
60258;BME280;46115;44.484;11.314;2023-03-03T12:40:34;100392.25;;;12.68;59.76
60258;BME280;46115;44.484;11.314;2023-03-03T12:44:40;100384.97;;;12.72;59.38
60258;BME280;46115;44.484;11.314;2023-03-03T12:48:46;100360.22;;;12.57;60.94
60258;BME280;46115;44.484;11.314;2023-03-03T12:52:53;100381.50;;;13.00;61.32
60258;BME280;46115;44.484;11.314;2023-03-03T12:57:08;100376.50;;;13.09;59.16
60258;BME280;46115;44.484;11.314;2023-03-03T13:01:24;100382.47;;;12.99;60.16
60258;BME280;46115;44.484;11.314;2023-03-03T13:05:39;100374.97;;;13.05;60.67
60258;BME280;46115;44.484;11.314;2023-03-03T13:10:01;100335.78;;;12.66;62.39
60258;BME280;46115;44.484;11.314;2023-03-03T13:14:12;100373.38;;;13.03;61.83
60258;BME280;46115;44.484;11.314;2023-03-03T13:18:27;100357.13;;;12.79;59.69
60258;BME280;46115;44.484;11.314;2023-03-03T13:22:38;100376.97;;;13.02;59.87
60258;BME280;46115;44.484;11.314;2023-03-03T13:26:47;100367.50;;;12.98;60.71
60258;BME280;46115;44.484;11.314;2023-03-03T13:30:56;100370.59;;;13.34;59.80
60258;BME280;46115;44.484;11.314;2023-03-03T13:35:06;100367.38;;;13.29;61.24
60258;BME280;46115;44.484;11.314;2023-03-03T13:39:16;100369.91;;;13.31;59.76
60258;BME280;46115;44.484;11.314;2023-03-03T13:43:23;100363.63;;;13.18;60.96
60258;BME280;46115;44.484;11.314;2023-03-03T13:47:33;100361.56;;;13.37;59.92
60258;BME280;46115;44.484;11.314;2023-03-03T13:51:42;100361.28;;;13.41;59.54
60258;BME280;46115;44.484;11.314;2023-03-03T13:55:51;100314.50;;;12.82;59.09
60258;BME280;46115;44.484;11.314;2023-03-03T14:00:09;100359.53;;;13.12;58.18
60258;BME280;46115;44.484;11.314;2023-03-03T14:04:28;100358.59;;;12.99;59.42
60258;BME280;46115;44.484;11.314;2023-03-03T14:08:44;100345.97;;;13.17;58.72
60258;BME280;46115;44.484;11.314;2023-03-03T14:12:57;100352.09;;;13.33;57.70
60258;BME280;46115;44.484;11.314;2023-03-03T14:17:07;100347.78;;;13.16;57.55
60258;BME280;46115;44.484;11.314;2023-03-03T14:21:18;100345.00;;;13.19;59.05
60258;BME280;46115;44.484;11.314;2023-03-03T14:25:22;100336.66;;;13.25;59.17
60258;BME280;46115;44.484;11.314;2023-03-03T14:29:30;100344.88;;;13.49;58.54
60258;BME280;46115;44.484;11.314;2023-03-03T14:33:33;100336.69;;;13.66;57.26
60258;BME280;46115;44.484;11.314;2023-03-03T14:37:44;100339.28;;;13.39;59.31
60258;BME280;46115;44.484;11.314;2023-03-03T14:41:46;100336.69;;;13.52;58.62
60258;BME280;46115;44.484;11.314;2023-03-03T14:45:49;100343.06;;;13.64;58.28
60258;BME280;46115;44.484;11.314;2023-03-03T14:49:52;100331.47;;;13.65;56.93
60258;BME280;46115;44.484;11.314;2023-03-03T14:53:57;100333.91;;;13.27;58.82
60258;BME280;46115;44.484;11.314;2023-03-03T14:57:59;100338.66;;;13.22;59.88
60258;BME280;46115;44.484;11.314;2023-03-03T15:02:27;100336.06;;;13.34;58.71
60258;BME280;46115;44.484;11.314;2023-03-03T15:06:34;100330.28;;;13.28;59.18
60258;BME280;46115;44.484;11.314;2023-03-03T15:11:11;100324.50;;;12.63;60.06
60258;BME280;46115;44.484;11.314;2023-03-03T15:15:17;100320.56;;;12.40;61.52
60258;BME280;46115;44.484;11.314;2023-03-03T15:24:02;100320.50;;;13.00;60.41
60258;BME280;46115;44.484;11.314;2023-03-03T15:28:21;100324.94;;;12.99;59.93
60258;BME280;46115;44.484;11.314;2023-03-03T15:32:33;100334.31;;;12.91;60.71
60258;BME280;46115;44.484;11.314;2023-03-03T15:36:44;100329.97;;;13.04;60.45
60258;BME280;46115;44.484;11.314;2023-03-03T15:40:51;100332.25;;;12.96;60.07
60258;BME280;46115;44.484;11.314;2023-03-03T15:45:04;100291.97;;;12.89;59.08
60258;BME280;46115;44.484;11.314;2023-03-03T15:49:18;100336.69;;;13.09;59.37
60258;BME280;46115;44.484;11.314;2023-03-03T15:53:32;100331.00;;;13.01;59.80
60258;BME280;46115;44.484;11.314;2023-03-03T15:57:46;100326.81;;;12.83;61.23
60258;BME280;46115;44.484;11.314;2023-03-03T16:02:02;100324.56;;;13.05;60.17
60258;BME280;46115;44.484;11.314;2023-03-03T16:06:15;100318.47;;;13.19;58.99
60258;BME280;46115;44.484;11.314;2023-03-03T16:10:22;100329.78;;;13.07;59.65
60258;BME280;46115;44.484;11.314;2023-03-03T16:14:45;100329.88;;;12.91;59.69
60258;BME280;46115;44.484;11.314;2023-03-03T16:19:03;100330.97;;;12.73;60.86
60258;BME280;46115;44.484;11.314;2023-03-03T16:23:21;100334.69;;;12.85;60.35
60258;BME280;46115;44.484;11.314;2023-03-03T16:27:33;100339.50;;;12.78;60.30
60258;BME280;46115;44.484;11.314;2023-03-03T16:31:43;100333.44;;;12.76;60.92
60258;BME280;46115;44.484;11.314;2023-03-03T16:35:55;100342.22;;;12.62;62.05
60258;BME280;46115;44.484;11.314;2023-03-03T16:40:02;100347.53;;;12.62;62.22
60258;BME280;46115;44.484;11.314;2023-03-03T16:44:30;100343.53;;;12.25;62.89
60258;BME280;46115;44.484;11.314;2023-03-03T16:48:41;100344.22;;;12.43;63.00
60258;BME280;46115;44.484;11.314;2023-03-03T16:52:53;100339.84;;;12.28;63.02
60258;BME280;46115;44.484;11.314;2023-03-03T16:57:04;100348.19;;;12.36;63.00
60258;BME280;46115;44.484;11.314;2023-03-03T17:01:20;100349.59;;;12.11;63.99
60258;BME280;46115;44.484;11.314;2023-03-03T17:05:37;100339.22;;;11.93;65.17
60258;BME280;46115;44.484;11.314;2023-03-03T17:09:58;100368.69;;;11.86;64.59
60258;BME280;46115;44.484;11.314;2023-03-03T17:14:34;100368.63;;;11.55;66.36
60258;BME280;46115;44.484;11.314;2023-03-03T17:18:51;100380.94;;;11.56;67.05
60258;BME280;46115;44.484;11.314;2023-03-03T17:23:13;100371.72;;;11.63;66.23
60258;BME280;46115;44.484;11.314;2023-03-03T17:27:25;100382.72;;;11.55;66.54
60258;BME280;46115;44.484;11.314;2023-03-03T17:31:35;100388.38;;;11.32;67.89
60258;BME280;46115;44.484;11.314;2023-03-03T23:06:08;100544.00;;;7.32;86.50
60258;BME280;46115;44.484;11.314;2023-03-03T23:10:11;100548.47;;;7.28;86.40
60258;BME280;46115;44.484;11.314;2023-03-03T23:14:13;100545.66;;;7.08;87.20
60258;BME280;46115;44.484;11.314;2023-03-03T23:18:15;100553.59;;;7.33;86.13
60258;BME280;46115;44.484;11.314;2023-03-03T23:22:19;100556.13;;;7.36;85.49
60258;BME280;46115;44.484;11.314;2023-03-03T23:26:21;100557.53;;;7.19;85.37
60258;BME280;46115;44.484;11.314;2023-03-03T23:30:24;100553.72;;;7.28;85.68
60258;BME280;46115;44.484;11.314;2023-03-03T23:34:26;100557.28;;;7.27;85.96
60258;BME280;46115;44.484;11.314;2023-03-03T23:38:30;100558.44;;;7.18;85.64
60258;BME280;46115;44.484;11.314;2023-03-03T23:42:32;100560.22;;;7.18;85.91
60258;BME280;46115;44.484;11.314;2023-03-03T23:46:34;100552.78;;;7.31;85.87
60258;BME280;46115;44.484;11.314;2023-03-03T23:50:37;100547.34;;;7.10;85.13
60258;BME280;46115;44.484;11.314;2023-03-03T23:54:41;100547.88;;;6.94;85.43
60258;BME280;46115;44.484;11.314;2023-03-03T23:58:43;100554.03;;;6.93;85.88
